createdAt,value
2018-02-17T00:00:06.036Z,16.77
2018-02-17T00:01:10.498Z,15.05
2018-02-17T00:02:14.966Z,17.00
2018-02-17T00:03:19.417Z,16.95
2018-02-17T00:04:23.858Z,14.98
2018-02-17T00:05:28.310Z,15.70
2018-02-17T00:06:32.764Z,17.48
2018-02-17T00:07:37.371Z,14.82
2018-02-17T00:08:41.826Z,16.42
2018-02-17T00:09:46.340Z,16.00
2018-02-17T00:10:50.787Z,15.05
2018-02-17T00:11:56.003Z,15.98
2018-02-17T00:13:00.483Z,14.85
2018-02-17T00:14:04.944Z,16.45
2018-02-17T00:15:10.178Z,15.70
2018-02-17T00:16:15.386Z,14.90
2018-02-17T00:17:21.338Z,16.52
2018-02-17T00:18:26.581Z,15.60
2018-02-17T00:19:31.789Z,14.68
2018-02-17T00:20:36.281Z,16.10
2018-02-17T00:21:40.733Z,14.75
2018-02-17T00:22:50.830Z,16.65
2018-02-17T00:23:55.306Z,15.60
2018-02-17T00:24:59.748Z,15.48
2018-02-17T00:26:04.267Z,16.15
2018-02-17T00:27:08.724Z,16.08
2018-02-17T00:28:13.753Z,15.40
2018-02-17T00:29:18.251Z,15.20
2018-02-17T00:30:22.730Z,15.70
2018-02-17T00:31:27.248Z,15.07
2018-02-17T00:32:31.696Z,15.40
2018-02-17T00:33:36.146Z,16.48
2018-02-17T00:34:40.608Z,16.58
2018-02-17T00:35:45.096Z,16.00
2018-02-17T00:36:49.537Z,16.73
2018-02-17T00:37:54.750Z,15.90
2018-02-17T00:38:59.199Z,16.12
2018-02-17T00:40:04.089Z,15.68
2018-02-17T00:41:08.541Z,15.98
2018-02-17T00:42:12.982Z,16.17
2018-02-17T00:43:17.098Z,16.45
2018-02-17T00:44:21.546Z,17.50
2018-02-17T00:45:26.784Z,17.20
2018-02-17T00:46:31.230Z,16.75
2018-02-17T00:47:35.674Z,18.10
2018-02-17T00:48:40.117Z,15.57
2018-02-17T00:49:45.323Z,16.25
2018-02-17T00:50:50.565Z,15.50
2018-02-17T00:51:55.005Z,16.20
2018-02-17T00:52:59.458Z,15.65
2018-02-17T00:54:03.902Z,16.40
2018-02-17T00:55:09.104Z,16.12
2018-02-17T00:56:14.367Z,16.60
2018-02-17T00:57:19.575Z,17.20
2018-02-17T00:58:24.029Z,16.35
2018-02-17T00:59:28.461Z,16.10
2018-02-17T01:00:32.914Z,15.00
2018-02-17T01:01:38.222Z,15.10
2018-02-17T01:02:42.654Z,15.23
2018-02-17T01:03:47.883Z,16.17
2018-02-17T01:04:52.325Z,16.15
2018-02-17T01:05:56.761Z,15.65
2018-02-17T01:07:01.230Z,16.35
2018-02-17T01:08:06.437Z,15.88
2018-02-17T01:09:11.009Z,16.20
2018-02-17T01:10:15.483Z,16.08
2018-02-17T01:11:20.694Z,15.98
2018-02-17T01:12:25.192Z,14.32
2018-02-17T01:13:29.621Z,16.55
2018-02-17T01:14:34.066Z,15.93
2018-02-17T01:15:38.522Z,15.20
2018-02-17T01:16:42.785Z,17.30
2018-02-17T01:17:47.261Z,16.83
2018-02-17T01:18:51.709Z,16.15
2018-02-17T01:19:56.146Z,15.52
2018-02-17T01:21:00.598Z,14.07
2018-02-17T01:22:05.045Z,16.20
2018-02-17T01:23:09.513Z,16.50
2018-02-17T01:24:13.958Z,16.87
2018-02-17T01:25:19.171Z,16.67
2018-02-17T01:26:24.390Z,15.82
2018-02-17T01:27:28.829Z,16.73
2018-02-17T01:28:33.308Z,16.23
2018-02-17T01:29:37.741Z,17.00
2018-02-17T01:30:42.970Z,18.08
2018-02-17T01:31:48.193Z,16.20
2018-02-17T01:32:53.417Z,16.77
2018-02-17T01:33:57.894Z,16.15
2018-02-17T01:35:02.346Z,16.85
2018-02-17T01:36:07.559Z,15.85
2018-02-17T01:37:12.055Z,16.98
2018-02-17T01:38:16.491Z,16.17
2018-02-17T01:39:21.003Z,15.65
2018-02-17T01:40:25.434Z,16.70
2018-02-17T01:41:30.657Z,16.27
2018-02-17T01:42:35.681Z,17.33
2018-02-17T01:43:40.889Z,16.52
2018-02-17T01:44:45.414Z,17.83
2018-02-17T01:45:49.670Z,16.45
2018-02-17T01:46:54.110Z,16.83
2018-02-17T01:47:58.566Z,16.95
2018-02-17T01:49:03.010Z,16.12
2018-02-17T01:50:18.802Z,17.10
2018-02-17T01:51:23.254Z,16.75
2018-02-17T01:52:28.458Z,16.83
2018-02-17T01:53:32.723Z,15.98
2018-02-17T01:54:36.985Z,16.52
2018-02-17T01:55:41.839Z,16.55
2018-02-17T01:56:46.290Z,16.60
2018-02-17T01:57:50.550Z,16.67
2018-02-17T01:58:54.876Z,16.30
2018-02-17T01:59:59.323Z,16.83
2018-02-17T02:01:03.794Z,16.45
2018-02-17T02:02:08.252Z,16.30
2018-02-17T02:03:12.706Z,18.40
2018-02-17T02:04:17.157Z,17.10
2018-02-17T02:05:21.606Z,18.10
2018-02-17T02:06:26.853Z,16.83
2018-02-17T02:07:31.290Z,17.27
2018-02-17T02:08:35.722Z,18.62
2018-02-17T02:09:40.170Z,16.27
2018-02-17T02:10:45.390Z,16.27
2018-02-17T02:11:50.628Z,17.02
2018-02-17T02:12:55.836Z,17.83
2018-02-17T02:14:00.277Z,16.83
2018-02-17T02:15:04.399Z,16.02
2018-02-17T02:16:08.846Z,17.77
2018-02-17T02:17:13.318Z,18.42
2018-02-17T02:18:17.768Z,17.40
2018-02-17T02:19:22.280Z,17.30
2018-02-17T02:20:26.718Z,17.00
2018-02-17T02:21:31.938Z,17.30
2018-02-17T02:22:36.423Z,17.67
2018-02-17T02:23:40.858Z,17.25
2018-02-17T02:24:45.303Z,17.50
2018-02-17T02:25:49.774Z,18.75
2018-02-17T02:26:54.214Z,17.67
2018-02-17T02:27:59.484Z,18.00
2018-02-17T02:29:03.929Z,17.35
2018-02-17T02:30:08.374Z,17.48
2018-02-17T02:31:13.592Z,17.80
2018-02-17T02:32:18.018Z,17.15
2018-02-17T02:33:22.491Z,18.17
2018-02-17T02:34:26.943Z,18.00
2018-02-17T02:35:31.182Z,17.92
2018-02-17T02:36:35.636Z,18.48
2018-02-17T02:37:40.078Z,19.35
2018-02-17T02:38:44.540Z,16.67
2018-02-17T02:39:48.987Z,18.05
2018-02-17T02:40:53.435Z,17.08
2018-02-17T02:41:57.883Z,17.67
2018-02-17T02:43:02.326Z,17.75
2018-02-17T02:44:06.798Z,19.92
2018-02-17T02:45:11.241Z,17.05
2018-02-17T02:46:15.692Z,18.25
2018-02-17T02:47:20.139Z,16.33
2018-02-17T02:48:24.577Z,16.87
2018-02-17T02:49:29.049Z,16.83
2018-02-17T02:50:34.991Z,16.33
2018-02-17T02:51:39.446Z,17.30
2018-02-17T02:52:43.886Z,17.42
2018-02-17T02:53:48.350Z,18.52
2018-02-17T02:54:53.645Z,17.37
2018-02-17T02:55:58.086Z,20.23
2018-02-17T02:57:03.310Z,17.67
2018-02-17T02:58:07.756Z,16.77
2018-02-17T02:59:12.203Z,17.42
2018-02-17T03:00:16.674Z,17.87
2018-02-17T03:01:21.131Z,19.15
2018-02-17T03:02:25.584Z,17.35
2018-02-17T03:03:30.784Z,17.50
2018-02-17T03:04:35.032Z,18.45
2018-02-17T03:05:39.324Z,17.00
2018-02-17T03:06:44.610Z,17.35
2018-02-17T03:07:49.058Z,18.45
2018-02-17T03:08:54.273Z,17.95
2018-02-17T03:09:58.725Z,17.77
2018-02-17T03:11:03.199Z,19.40
2018-02-17T03:12:08.406Z,16.77
2018-02-17T03:13:12.856Z,18.65
2018-02-17T03:14:18.066Z,18.15
2018-02-17T03:15:22.859Z,19.73
2018-02-17T03:16:27.319Z,19.10
2018-02-17T03:17:32.536Z,18.65
2018-02-17T03:18:37.883Z,21.10
2018-02-17T03:19:43.104Z,17.15
2018-02-17T03:20:48.122Z,18.37
2018-02-17T03:21:53.366Z,18.02
2018-02-17T03:22:57.814Z,18.52
2018-02-17T03:24:02.338Z,18.85
2018-02-17T03:25:06.850Z,18.77
2018-02-17T03:26:11.285Z,18.25
2018-02-17T03:27:16.538Z,18.37
2018-02-17T03:28:21.554Z,18.65
2018-02-17T03:29:26.767Z,18.87
2018-02-17T03:30:31.258Z,18.33
2018-02-17T03:31:35.700Z,19.67
2018-02-17T03:32:40.933Z,18.05
2018-02-17T03:33:45.958Z,17.92
2018-02-17T03:34:51.209Z,18.73
2018-02-17T03:35:55.695Z,19.45
2018-02-17T03:37:00.902Z,19.58
2018-02-17T03:38:05.367Z,18.35
2018-02-17T03:39:09.821Z,18.50
2018-02-17T03:40:15.783Z,19.20
2018-02-17T03:41:20.998Z,18.77
2018-02-17T03:42:25.443Z,18.62
2018-02-17T03:43:30.678Z,17.85
2018-02-17T03:44:35.131Z,18.92
2018-02-17T03:45:39.570Z,19.35
2018-02-17T03:46:44.789Z,18.85
2018-02-17T03:47:50.743Z,19.92
2018-02-17T03:48:55.237Z,20.27
2018-02-17T03:49:59.686Z,18.60
2018-02-17T03:51:04.902Z,20.00
2018-02-17T03:52:09.342Z,19.83
2018-02-17T03:53:13.790Z,18.73
2018-02-17T03:54:18.262Z,18.20
2018-02-17T03:55:22.710Z,17.80
2018-02-17T03:56:27.157Z,18.30
2018-02-17T03:57:32.453Z,19.80
2018-02-17T03:58:36.897Z,18.05
2018-02-17T03:59:42.172Z,21.02
2018-02-17T04:00:46.609Z,19.35
2018-02-17T04:01:51.068Z,18.90
2018-02-17T04:02:56.275Z,18.25
2018-02-17T04:04:00.718Z,18.05
2018-02-17T04:05:04.993Z,18.52
2018-02-17T04:06:10.209Z,18.10
2018-02-17T04:07:14.658Z,19.92
2018-02-17T04:08:18.919Z,18.75
2018-02-17T04:09:23.372Z,18.92
2018-02-17T04:10:28.613Z,18.60
2018-02-17T04:11:33.066Z,18.95
2018-02-17T04:12:37.513Z,19.15
2018-02-17T04:13:42.739Z,18.73
2018-02-17T04:14:47.950Z,19.85
2018-02-17T04:15:52.435Z,19.95
2018-02-17T04:16:56.878Z,18.52
2018-02-17T04:18:02.106Z,20.02
2018-02-17T04:19:06.558Z,17.65
2018-02-17T04:20:11.002Z,19.40
2018-02-17T04:21:15.475Z,20.00
2018-02-17T04:22:19.934Z,19.25
2018-02-17T04:23:25.146Z,19.35
2018-02-17T04:24:29.599Z,18.60
2018-02-17T04:25:34.822Z,20.12
2018-02-17T04:26:40.070Z,18.98
2018-02-17T04:27:44.529Z,19.67
2018-02-17T04:28:48.975Z,18.62
2018-02-17T04:29:54.190Z,20.83
2018-02-17T04:30:58.446Z,19.17
2018-02-17T04:32:03.126Z,19.42
2018-02-17T04:33:08.357Z,20.60
2018-02-17T04:34:13.567Z,19.02
2018-02-17T04:35:18.013Z,19.35
2018-02-17T04:36:22.457Z,19.50
2018-02-17T04:37:26.764Z,19.25
2018-02-17T04:38:31.014Z,19.85
2018-02-17T04:41:19.176Z,19.23
2018-02-17T04:42:27.760Z,18.92
2018-02-17T04:43:36.605Z,19.17
2018-02-17T04:44:40.873Z,17.75
2018-02-17T04:45:47.665Z,18.90
2018-02-17T04:46:58.336Z,17.92
2018-02-17T04:48:02.614Z,19.45
2018-02-17T04:49:08.141Z,18.52
2018-02-17T04:52:10.317Z,19.02
2018-02-17T04:53:15.366Z,19.30
2018-02-17T04:54:39.505Z,19.20
2018-02-17T04:55:49.502Z,19.25
2018-02-17T04:56:59.417Z,19.65
2018-02-17T04:58:18.582Z,19.55
2018-02-17T04:59:38.673Z,18.45
2018-02-17T05:00:44.890Z,21.27
2018-02-17T05:01:54.397Z,20.58
2018-02-17T05:04:38.793Z,19.85
2018-02-17T05:05:58.717Z,20.12
2018-02-17T05:07:21.860Z,19.83
2018-02-17T05:10:06.988Z,20.17
2018-02-17T05:11:11.252Z,21.02
2018-02-17T05:12:16.294Z,19.30
2018-02-17T05:13:21.325Z,19.83
2018-02-17T05:14:32.446Z,20.40
2018-02-17T05:15:38.369Z,20.62
2018-02-17T05:16:59.438Z,20.05
2018-02-17T05:19:49.221Z,21.40
2018-02-17T05:20:53.525Z,20.95
2018-02-17T05:22:00.434Z,20.65
2018-02-17T05:23:21.357Z,21.40
2018-02-17T05:24:40.500Z,20.75
2018-02-17T05:25:47.440Z,20.37
2018-02-17T05:26:58.421Z,19.73
2018-02-17T05:28:02.677Z,22.42
2018-02-17T05:29:11.353Z,20.85
2018-02-17T05:30:17.849Z,21.85
2018-02-17T05:31:22.884Z,21.95
2018-02-17T05:34:05.589Z,22.98
2018-02-17T05:35:25.598Z,20.25
2018-02-17T05:36:39.774Z,19.98
2018-02-17T05:37:44.062Z,22.10
2018-02-17T05:38:48.339Z,20.30
2018-02-17T05:40:01.186Z,21.05
2018-02-17T05:41:08.077Z,20.10
2018-02-17T05:42:16.757Z,21.15
2018-02-17T05:43:21.103Z,20.70
2018-02-17T05:44:27.093Z,22.67
2018-02-17T05:45:31.961Z,21.75
2018-02-17T05:46:37.366Z,21.52
2018-02-17T05:47:43.595Z,20.20
2018-02-17T05:48:47.873Z,21.40
2018-02-17T05:49:54.074Z,23.10
2018-02-17T05:50:58.327Z,22.08
2018-02-17T05:52:02.776Z,20.65
2018-02-17T05:53:07.221Z,20.05
2018-02-17T05:54:11.684Z,20.33
2018-02-17T05:55:16.129Z,19.90
2018-02-17T05:56:21.358Z,21.42
2018-02-17T05:57:25.867Z,20.55
2018-02-17T05:58:30.298Z,19.45
2018-02-17T05:59:34.768Z,21.35
2018-02-17T06:00:39.226Z,19.98
2018-02-17T06:01:44.450Z,21.62
2018-02-17T06:02:48.890Z,21.58
2018-02-17T06:03:53.344Z,21.62
2018-02-17T06:04:57.629Z,22.05
2018-02-17T06:06:02.093Z,22.45
2018-02-17T06:07:07.306Z,21.55
2018-02-17T06:08:11.753Z,22.50
2018-02-17T06:09:16.214Z,20.80
2018-02-17T06:10:20.703Z,21.92
2018-02-17T06:11:25.055Z,20.70
2018-02-17T06:12:29.502Z,21.30
2018-02-17T06:13:33.941Z,20.50
2018-02-17T06:14:38.211Z,20.92
2018-02-17T06:15:42.700Z,21.17
2018-02-17T06:16:47.741Z,21.17
2018-02-17T06:17:52.189Z,21.98
2018-02-17T06:18:56.634Z,19.27
2018-02-17T06:20:01.092Z,22.50
2018-02-17T06:21:05.645Z,21.40
2018-02-17T06:22:10.087Z,21.20
2018-02-17T06:23:15.301Z,23.55
2018-02-17T06:24:19.746Z,20.75
2018-02-17T06:25:24.265Z,23.00
2018-02-17T06:26:28.739Z,20.90
2018-02-17T06:27:33.185Z,20.88
2018-02-17T06:28:37.622Z,24.80
2018-02-17T06:29:42.070Z,23.85
2018-02-17T06:30:46.522Z,21.83
2018-02-17T06:31:50.994Z,20.83
2018-02-17T06:32:56.421Z,20.35
2018-02-17T06:34:00.873Z,21.30
2018-02-17T06:35:05.326Z,23.45
2018-02-17T06:36:09.783Z,20.23
2018-02-17T06:37:14.254Z,23.38
2018-02-17T06:38:18.724Z,20.70
2018-02-17T06:39:23.169Z,22.58
2018-02-17T06:40:27.635Z,22.80
2018-02-17T06:41:32.090Z,21.27
2018-02-17T06:42:36.568Z,24.48
2018-02-17T06:43:41.013Z,20.40
2018-02-17T06:44:45.480Z,21.95
2018-02-17T06:45:49.931Z,23.85
2018-02-17T06:46:54.455Z,21.48
2018-02-17T06:47:58.928Z,21.12
2018-02-17T06:49:03.398Z,20.50
2018-02-17T06:50:07.834Z,21.75
2018-02-17T06:51:12.294Z,21.50
2018-02-17T06:52:16.764Z,20.12
2018-02-17T06:53:21.232Z,21.37
2018-02-17T06:54:25.856Z,22.00
2018-02-17T06:55:31.164Z,21.10
2018-02-17T06:56:35.605Z,20.35
2018-02-17T06:57:40.809Z,20.17
2018-02-17T06:58:46.054Z,20.70
2018-02-17T06:59:50.312Z,21.70
2018-02-17T07:00:54.771Z,22.85
2018-02-17T07:01:59.987Z,22.00
2018-02-17T07:03:04.434Z,22.52
2018-02-17T07:04:08.945Z,21.95
2018-02-17T07:05:13.394Z,20.52
2018-02-17T07:06:17.849Z,21.52
2018-02-17T07:07:23.063Z,19.80
2018-02-17T07:08:27.537Z,23.17
2018-02-17T07:09:32.012Z,22.30
2018-02-17T07:10:37.225Z,19.83
2018-02-17T07:11:42.442Z,20.58
2018-02-17T07:12:46.884Z,20.50
2018-02-17T07:13:51.331Z,20.73
2018-02-17T07:14:55.816Z,20.55
2018-02-17T07:16:00.262Z,19.12
2018-02-17T07:17:04.386Z,20.15
2018-02-17T07:18:08.830Z,19.10
2018-02-17T07:19:13.293Z,21.02
2018-02-17T07:20:17.781Z,19.90
2018-02-17T07:21:22.036Z,21.70
2018-02-17T07:22:26.493Z,22.15
2018-02-17T07:23:30.941Z,22.20
2018-02-17T07:24:35.243Z,20.75
2018-02-17T07:25:39.714Z,20.67
2018-02-17T07:26:44.172Z,21.02
2018-02-17T07:27:48.622Z,19.70
2018-02-17T07:28:52.885Z,20.92
2018-02-17T07:29:57.380Z,20.80
2018-02-17T07:31:01.884Z,20.45
2018-02-17T07:32:06.370Z,19.90
2018-02-17T07:33:10.927Z,20.80
2018-02-17T07:34:15.374Z,19.33
2018-02-17T07:35:20.590Z,19.83
2018-02-17T07:36:26.601Z,20.67
2018-02-17T07:37:31.045Z,19.70
2018-02-17T07:38:36.261Z,19.87
2018-02-17T07:39:40.705Z,19.83
2018-02-17T07:40:45.933Z,21.10
2018-02-17T07:41:51.161Z,20.60
2018-02-17T07:42:56.038Z,21.62
2018-02-17T07:44:00.490Z,20.58
2018-02-17T07:45:05.721Z,19.90
2018-02-17T07:46:10.954Z,21.27
2018-02-17T07:47:16.177Z,20.55
2018-02-17T07:48:21.405Z,21.10
2018-02-17T07:49:26.616Z,20.60
2018-02-17T07:50:31.831Z,20.23
2018-02-17T07:51:36.302Z,20.67
2018-02-17T07:52:41.727Z,19.62
2018-02-17T07:53:46.290Z,19.75
2018-02-17T07:54:51.213Z,19.85
2018-02-17T07:55:55.649Z,20.67
2018-02-17T07:57:00.861Z,20.40
2018-02-17T07:58:05.338Z,21.25
2018-02-17T07:59:09.777Z,20.98
2018-02-17T08:00:14.234Z,21.45
2018-02-17T08:01:18.695Z,19.73
2018-02-17T08:02:23.126Z,21.15
2018-02-17T08:03:27.612Z,22.58
2018-02-17T08:04:32.062Z,21.12
2018-02-17T08:05:37.277Z,21.48
2018-02-17T08:06:41.821Z,23.77
2018-02-17T08:07:47.099Z,26.10
2018-02-17T08:08:51.575Z,24.83
2018-02-17T08:09:56.025Z,22.20
2018-02-17T08:11:00.538Z,22.67
2018-02-17T08:12:05.108Z,21.65
2018-02-17T08:13:09.597Z,21.55
2018-02-17T08:14:14.846Z,24.15
2018-02-17T08:15:19.294Z,23.75
2018-02-17T08:16:23.755Z,22.50
2018-02-17T08:17:28.966Z,22.67
2018-02-17T08:18:34.181Z,22.80
2018-02-17T08:19:38.662Z,20.80
2018-02-17T08:20:43.113Z,21.27
2018-02-17T08:21:47.565Z,21.30
2018-02-17T08:22:52.027Z,22.00
2018-02-17T08:23:56.490Z,23.38
2018-02-17T08:25:00.970Z,22.23
2018-02-17T08:26:06.241Z,21.60
2018-02-17T08:27:10.779Z,21.65
2018-02-17T08:28:15.292Z,21.80
2018-02-17T08:29:19.756Z,22.37
2018-02-17T08:30:23.880Z,20.50
2018-02-17T08:31:28.337Z,20.70
2018-02-17T08:32:33.045Z,21.10
2018-02-17T08:33:37.314Z,21.60
2018-02-17T08:34:41.769Z,20.95
2018-02-17T08:35:46.263Z,21.87
2018-02-17T08:36:50.704Z,22.27
2018-02-17T08:37:55.921Z,21.40
2018-02-17T08:39:00.365Z,22.05
2018-02-17T08:40:04.814Z,21.98
2018-02-17T08:41:09.545Z,24.33
2018-02-17T08:42:14.103Z,23.67
2018-02-17T08:43:18.550Z,22.23
2018-02-17T08:44:22.998Z,21.75
2018-02-17T08:45:28.242Z,20.37
2018-02-17T08:46:33.487Z,23.12
2018-02-17T08:47:38.050Z,23.67
2018-02-17T08:48:42.502Z,21.95
2018-02-17T08:49:47.710Z,22.48
2018-02-17T08:50:51.970Z,22.23
2018-02-17T08:51:56.452Z,22.80
2018-02-17T08:53:01.670Z,22.65
2018-02-17T08:54:06.896Z,21.77
2018-02-17T08:55:11.329Z,23.33
2018-02-17T08:56:15.949Z,22.73
2018-02-17T08:57:21.191Z,22.90
2018-02-17T08:58:25.762Z,23.25
2018-02-17T08:59:30.218Z,23.20
2018-02-17T09:00:35.513Z,23.90
2018-02-17T09:01:40.855Z,22.90
2018-02-17T09:02:45.339Z,22.77
2018-02-17T09:03:49.818Z,23.30
2018-02-17T09:04:54.082Z,21.73
2018-02-17T09:05:59.301Z,22.55
2018-02-17T09:07:05.260Z,22.25
2018-02-17T09:08:09.542Z,22.98
2018-02-17T09:09:13.807Z,23.85
2018-02-17T09:10:17.923Z,25.48
2018-02-17T09:11:22.382Z,23.95
2018-02-17T09:12:27.796Z,24.52
2018-02-17T09:13:33.043Z,22.45
2018-02-17T09:14:37.540Z,23.67
2018-02-17T09:15:42.766Z,23.83
2018-02-17T09:16:48.361Z,24.42
2018-02-17T09:17:54.818Z,22.42
2018-02-17T09:19:00.561Z,24.83
2018-02-17T09:20:06.664Z,22.37
2018-02-17T09:21:11.484Z,24.35
2018-02-17T09:22:20.638Z,23.27
2018-02-17T09:23:26.729Z,23.80
2018-02-17T09:24:32.314Z,21.62
2018-02-17T09:25:38.860Z,25.70
2018-02-17T09:26:44.008Z,25.60
2018-02-17T09:27:50.851Z,23.70
2018-02-17T09:28:59.298Z,24.15
2018-02-17T09:30:04.996Z,23.73
2018-02-17T09:31:10.052Z,23.80
2018-02-17T09:32:15.438Z,24.65
2018-02-17T09:33:20.569Z,22.27
2018-02-17T09:34:25.947Z,24.23
2018-02-17T09:35:31.150Z,24.60
2018-02-17T09:36:37.524Z,23.92
2018-02-17T09:37:42.701Z,24.02
2018-02-17T09:38:47.299Z,23.15
2018-02-17T09:39:51.735Z,23.95
2018-02-17T09:40:56.355Z,24.00
2018-02-17T09:42:00.815Z,23.92
2018-02-17T09:43:06.139Z,24.98
2018-02-17T09:44:10.595Z,25.23
2018-02-17T09:45:15.130Z,25.15
2018-02-17T09:46:21.674Z,23.83
2018-02-17T09:47:26.287Z,23.65
2018-02-17T09:48:31.007Z,24.45
2018-02-17T09:49:35.620Z,25.70
2018-02-17T09:50:40.105Z,23.27
2018-02-17T09:51:44.393Z,24.58
2018-02-17T09:52:48.668Z,24.40
2018-02-17T09:53:52.930Z,23.58
2018-02-17T09:54:58.296Z,23.45
2018-02-17T09:56:02.761Z,25.17
2018-02-17T09:57:07.264Z,22.40
2018-02-17T09:58:11.731Z,24.77
2018-02-17T09:59:16.187Z,23.25
2018-02-17T10:00:20.740Z,23.67
2018-02-17T10:01:26.793Z,23.87
2018-02-17T10:02:31.285Z,23.38
2018-02-17T10:03:35.761Z,22.80
2018-02-17T10:04:40.982Z,24.45
2018-02-17T10:05:46.375Z,23.27
2018-02-17T10:06:51.084Z,25.08
2018-02-17T10:07:55.710Z,23.58
2018-02-17T10:09:00.432Z,24.10
2018-02-17T10:10:05.143Z,24.05
2018-02-17T10:11:12.219Z,24.75
2018-02-17T10:12:16.687Z,24.67
2018-02-17T10:13:21.346Z,24.25
2018-02-17T10:14:25.960Z,24.52
2018-02-17T10:15:31.106Z,26.62
2018-02-17T10:16:37.163Z,26.02
2018-02-17T10:17:42.434Z,25.85
2018-02-17T10:18:48.824Z,25.20
2018-02-17T10:19:54.836Z,26.73
2018-02-17T10:20:59.353Z,25.40
2018-02-17T10:22:05.430Z,24.45
2018-02-17T10:23:11.068Z,25.02
2018-02-17T10:24:16.705Z,23.80
2018-02-17T10:25:21.422Z,24.87
2018-02-17T10:26:26.142Z,23.30
2018-02-17T10:27:30.960Z,26.00
2018-02-17T10:28:36.662Z,22.77
2018-02-17T10:29:42.871Z,25.10
2018-02-17T10:30:47.568Z,23.38
2018-02-17T10:31:52.389Z,23.70
2018-02-17T10:32:57.736Z,24.92
2018-02-17T10:34:03.255Z,23.65
2018-02-17T10:35:09.303Z,23.80
2018-02-17T10:36:13.914Z,23.30
2018-02-17T10:37:18.533Z,24.35
2018-02-17T10:38:23.356Z,23.65
2018-02-17T10:39:28.932Z,25.42
2018-02-17T10:40:33.606Z,23.90
2018-02-17T10:41:38.425Z,25.17
2018-02-17T10:42:43.171Z,24.77
2018-02-17T10:43:49.112Z,23.90
2018-02-17T10:44:55.048Z,22.98
2018-02-17T10:46:00.570Z,23.45
2018-02-17T10:47:05.640Z,24.60
2018-02-17T10:48:10.418Z,25.75
2018-02-17T10:49:15.131Z,24.05
2018-02-17T10:50:19.951Z,25.85
2018-02-17T10:51:24.567Z,25.60
2018-02-17T10:52:30.409Z,24.08
2018-02-17T10:53:35.842Z,22.15
2018-02-17T10:54:40.566Z,24.58
2018-02-17T10:55:45.176Z,24.63
2018-02-17T10:56:51.429Z,24.12
2018-02-17T10:57:56.631Z,24.37
2018-02-17T10:59:00.780Z,24.12
2018-02-17T11:00:04.864Z,24.63
2018-02-17T11:01:10.847Z,26.10
2018-02-17T11:02:16.103Z,25.33
2018-02-17T11:03:21.573Z,26.10
2018-02-17T11:04:27.417Z,24.02
2018-02-17T11:05:32.237Z,25.12
2018-02-17T11:06:36.786Z,23.52
2018-02-17T11:07:42.207Z,25.92
2018-02-17T11:08:46.731Z,25.20
2018-02-17T11:09:51.567Z,24.42
2018-02-17T11:10:56.260Z,23.08
2018-02-17T11:12:01.581Z,25.08
2018-02-17T11:13:08.124Z,23.67
2018-02-17T11:14:12.841Z,23.90
2018-02-17T11:15:17.704Z,23.50
2018-02-17T11:16:22.691Z,22.48
2018-02-17T11:17:27.316Z,23.08
2018-02-17T11:18:31.957Z,23.48
2018-02-17T11:19:36.839Z,23.87
2018-02-17T11:20:41.863Z,25.17
2018-02-17T11:21:48.122Z,23.17
2018-02-17T11:22:52.834Z,25.23
2018-02-17T11:23:58.470Z,23.90
2018-02-17T11:25:04.005Z,22.67
2018-02-17T11:26:09.236Z,21.95
2018-02-17T11:27:13.953Z,21.67
2018-02-17T11:28:18.566Z,22.70
2018-02-17T11:29:23.388Z,21.95
2018-02-17T11:30:28.244Z,22.62
2018-02-17T11:31:33.129Z,22.75
2018-02-17T11:32:37.715Z,22.48
2018-02-17T11:33:42.669Z,23.27
2018-02-17T11:34:47.388Z,21.98
2018-02-17T11:35:53.904Z,23.20
2018-02-17T11:36:58.716Z,23.02
2018-02-17T11:38:03.482Z,23.60
2018-02-17T11:39:08.301Z,24.83
2018-02-17T11:40:13.837Z,22.92
2018-02-17T11:41:18.551Z,22.73
2018-02-17T11:42:23.373Z,22.13
2018-02-17T11:43:28.093Z,22.87
2018-02-17T11:44:34.355Z,24.12
2018-02-17T11:45:39.980Z,21.65
2018-02-17T11:46:46.252Z,23.08
2018-02-17T11:47:51.768Z,23.80
2018-02-17T11:48:57.405Z,22.17
2018-02-17T11:50:02.141Z,24.30
2018-02-17T11:51:07.661Z,22.10
2018-02-17T11:52:13.153Z,24.75
2018-02-17T11:53:17.913Z,22.00
2018-02-17T11:54:22.732Z,23.83
2018-02-17T11:55:27.448Z,23.38
2018-02-17T11:56:32.226Z,22.55
2018-02-17T11:57:37.702Z,25.65
2018-02-17T11:58:42.576Z,26.00
2018-02-17T11:59:47.549Z,23.62
2018-02-17T12:00:52.367Z,25.70
2018-02-17T12:01:57.084Z,22.62
2018-02-17T12:03:01.737Z,24.10
2018-02-17T12:04:07.133Z,24.30
2018-02-17T12:05:12.708Z,23.60
2018-02-17T12:06:17.420Z,23.40
2018-02-17T12:07:22.925Z,23.62
2018-02-17T12:08:27.743Z,23.05
2018-02-17T12:09:34.096Z,22.95
2018-02-17T12:10:38.712Z,24.37
2018-02-17T12:11:44.145Z,25.10
2018-02-17T12:12:49.067Z,23.27
2018-02-17T12:13:53.783Z,23.98
2018-02-17T12:14:58.461Z,23.15
2018-02-17T12:16:03.321Z,24.37
2018-02-17T12:17:08.142Z,23.52
2018-02-17T12:18:13.896Z,23.65
2018-02-17T12:19:19.023Z,22.20
2018-02-17T12:20:23.727Z,22.25
2018-02-17T12:21:29.082Z,22.67
2018-02-17T12:22:34.647Z,24.42
2018-02-17T12:23:40.171Z,22.90
2018-02-17T12:24:44.949Z,25.80
2018-02-17T12:25:49.770Z,22.33
2018-02-17T12:26:54.692Z,23.27
2018-02-17T12:27:59.408Z,23.25
2018-02-17T12:29:05.885Z,21.98
2018-02-17T12:30:11.401Z,22.67
2018-02-17T12:31:16.803Z,21.77
2018-02-17T12:32:21.553Z,21.80
2018-02-17T12:33:26.248Z,22.80
2018-02-17T12:34:30.937Z,24.83
2018-02-17T12:35:35.426Z,21.02
2018-02-17T12:36:40.806Z,21.00
2018-02-17T12:37:45.286Z,23.10
2018-02-17T12:38:50.518Z,22.00
2018-02-17T12:39:56.011Z,20.60
2018-02-17T12:41:00.513Z,21.90
2018-02-17T12:42:05.132Z,21.20
2018-02-17T12:43:10.669Z,21.90
2018-02-17T12:44:15.008Z,19.70
2018-02-17T12:45:20.410Z,21.10
2018-02-17T12:46:25.128Z,20.98
2018-02-17T12:47:29.844Z,20.85
2018-02-17T12:48:34.324Z,21.27
2018-02-17T12:49:38.970Z,20.83
2018-02-17T12:50:43.588Z,22.00
2018-02-17T12:51:48.202Z,20.60
2018-02-17T12:52:53.025Z,20.50
2018-02-17T12:53:57.549Z,21.90
2018-02-17T12:55:02.170Z,22.15
2018-02-17T12:56:07.610Z,21.62
2018-02-17T12:57:13.118Z,21.08
2018-02-17T12:58:17.661Z,22.00
2018-02-17T12:59:23.166Z,21.80
2018-02-17T13:00:27.722Z,20.00
2018-02-17T13:01:33.590Z,21.40
2018-02-17T13:02:38.116Z,20.75
2018-02-17T13:03:42.791Z,20.40
2018-02-17T13:04:48.265Z,21.27
2018-02-17T13:05:53.005Z,20.15
2018-02-17T13:07:00.692Z,20.33
2018-02-17T13:08:05.980Z,20.37
2018-02-17T13:09:10.650Z,21.00
2018-02-17T13:10:15.060Z,18.75
2018-02-17T13:11:19.766Z,18.80
2018-02-17T13:12:25.523Z,20.60
2018-02-17T13:13:30.152Z,19.62
2018-02-17T13:14:36.784Z,20.42
2018-02-17T13:15:43.037Z,19.98
2018-02-17T13:16:49.076Z,18.90
2018-02-17T13:17:53.699Z,19.15
2018-02-17T13:18:58.416Z,21.80
2018-02-17T13:20:03.139Z,19.80
2018-02-17T13:21:07.850Z,18.55
2018-02-17T13:22:13.082Z,18.40
2018-02-17T13:23:17.630Z,20.17
2018-02-17T13:24:23.059Z,18.20
2018-02-17T13:25:29.430Z,18.08
2018-02-17T13:26:33.978Z,19.33
2018-02-17T13:27:39.473Z,18.50
2018-02-17T13:28:43.980Z,19.85
2018-02-17T13:29:48.584Z,18.85
2018-02-17T13:30:53.129Z,18.80
2018-02-17T13:31:57.847Z,18.95
2018-02-17T13:33:03.047Z,19.25
2018-02-17T13:34:08.258Z,19.33
2018-02-17T13:35:12.773Z,18.60
2018-02-17T13:36:18.030Z,17.15
2018-02-17T13:37:23.258Z,17.35
2018-02-17T13:38:28.546Z,17.58
2018-02-17T13:39:33.149Z,17.15
2018-02-17T13:40:37.603Z,17.25
2018-02-17T13:41:42.289Z,17.55
2018-02-17T13:42:46.845Z,18.27
2018-02-17T13:43:52.079Z,17.65
2018-02-17T13:44:56.591Z,18.20
2018-02-17T13:46:01.064Z,19.23
2018-02-17T13:47:05.522Z,18.45
2018-02-17T13:48:10.208Z,16.62
2018-02-17T13:49:15.545Z,16.90
2018-02-17T13:50:20.975Z,17.20
2018-02-17T13:51:26.301Z,17.45
2018-02-17T13:52:31.868Z,17.60
2018-02-17T13:53:36.542Z,15.93
2018-02-17T13:54:41.363Z,16.77
2018-02-17T13:55:46.173Z,16.75
2018-02-17T13:56:50.889Z,17.27
2018-02-17T13:57:55.376Z,16.92
2018-02-17T13:59:00.015Z,17.08
2018-02-17T14:00:04.454Z,16.20
2018-02-17T14:01:09.870Z,16.83
2018-02-17T14:02:14.369Z,15.98
2018-02-17T14:03:18.678Z,16.58
2018-02-17T14:04:23.875Z,15.93
2018-02-17T14:05:29.136Z,16.60
2018-02-17T14:06:33.855Z,14.80
2018-02-17T14:07:38.571Z,15.32
2018-02-17T14:08:43.321Z,16.58